sensor_id;sensor_type;location;lat;lon;timestamp;P1;durP1;ratioP1;P2;durP2;ratioP2
52888;SDS011;41413;52.770;6.892;2022-07-12T00:01:53;2.22;;;2.13;;
52888;SDS011;41413;52.770;6.892;2022-07-12T00:04:19;1.90;;;1.80;;
52888;SDS011;41413;52.770;6.892;2022-07-12T00:06:46;3.35;;;2.20;;
52888;SDS011;41413;52.770;6.892;2022-07-12T00:09:13;1.90;;;1.80;;
52888;SDS011;41413;52.770;6.892;2022-07-12T00:11:40;2.40;;;2.13;;
52888;SDS011;41413;52.770;6.892;2022-07-12T00:14:08;1.60;;;1.50;;
52888;SDS011;41413;52.770;6.892;2022-07-12T00:16:36;6.38;;;2.25;;
52888;SDS011;41413;52.770;6.892;2022-07-12T00:19:03;2.33;;;2.10;;
52888;SDS011;41413;52.770;6.892;2022-07-12T00:21:30;2.10;;;1.90;;
52888;SDS011;41413;52.770;6.892;2022-07-12T00:23:57;3.17;;;2.53;;
52888;SDS011;41413;52.770;6.892;2022-07-12T00:26:24;3.65;;;2.20;;
52888;SDS011;41413;52.770;6.892;2022-07-12T00:28:51;2.20;;;2.10;;
52888;SDS011;41413;52.770;6.892;2022-07-12T00:31:18;1.73;;;1.63;;
52888;SDS011;41413;52.770;6.892;2022-07-12T00:33:44;1.73;;;1.63;;
52888;SDS011;41413;52.770;6.892;2022-07-12T00:36:11;1.40;;;1.30;;
52888;SDS011;41413;52.770;6.892;2022-07-12T00:38:38;3.88;;;2.40;;
52888;SDS011;41413;52.770;6.892;2022-07-12T00:41:05;2.17;;;2.08;;
52888;SDS011;41413;52.770;6.892;2022-07-12T00:43:32;1.65;;;1.55;;
52888;SDS011;41413;52.770;6.892;2022-07-12T00:45:58;1.70;;;1.63;;
52888;SDS011;41413;52.770;6.892;2022-07-12T00:48:25;1.73;;;1.50;;
52888;SDS011;41413;52.770;6.892;2022-07-12T00:50:52;3.90;;;1.70;;
52888;SDS011;41413;52.770;6.892;2022-07-12T00:53:19;2.35;;;1.90;;
52888;SDS011;41413;52.770;6.892;2022-07-12T00:55:56;1.52;;;1.42;;
52888;SDS011;41413;52.770;6.892;2022-07-12T00:58:24;2.20;;;1.90;;
52888;SDS011;41413;52.770;6.892;2022-07-12T01:00:52;2.50;;;2.30;;
52888;SDS011;41413;52.770;6.892;2022-07-12T01:03:22;1.73;;;1.63;;
52888;SDS011;41413;52.770;6.892;2022-07-12T01:05:49;2.05;;;1.60;;
52888;SDS011;41413;52.770;6.892;2022-07-12T01:08:15;2.65;;;2.03;;
52888;SDS011;41413;52.770;6.892;2022-07-12T01:10:43;2.50;;;2.30;;
52888;SDS011;41413;52.770;6.892;2022-07-12T01:13:11;1.75;;;1.65;;
52888;SDS011;41413;52.770;6.892;2022-07-12T01:15:38;1.77;;;1.67;;
52888;SDS011;41413;52.770;6.892;2022-07-12T01:18:06;2.55;;;2.22;;
52888;SDS011;41413;52.770;6.892;2022-07-12T01:20:33;1.90;;;1.73;;
52888;SDS011;41413;52.770;6.892;2022-07-12T01:23:00;1.98;;;1.88;;
52888;SDS011;41413;52.770;6.892;2022-07-12T01:25:27;1.92;;;1.80;;
52888;SDS011;41413;52.770;6.892;2022-07-12T01:27:55;3.58;;;2.10;;
52888;SDS011;41413;52.770;6.892;2022-07-12T01:30:21;2.30;;;2.20;;
52888;SDS011;41413;52.770;6.892;2022-07-12T01:32:49;3.33;;;1.90;;
52888;SDS011;41413;52.770;6.892;2022-07-12T01:35:17;1.83;;;1.73;;
52888;SDS011;41413;52.770;6.892;2022-07-12T01:37:44;2.40;;;2.20;;
52888;SDS011;41413;52.770;6.892;2022-07-12T01:40:12;1.98;;;1.88;;
52888;SDS011;41413;52.770;6.892;2022-07-12T01:42:40;1.85;;;1.75;;
52888;SDS011;41413;52.770;6.892;2022-07-12T01:45:10;1.52;;;1.42;;
52888;SDS011;41413;52.770;6.892;2022-07-12T01:47:38;1.55;;;1.45;;
52888;SDS011;41413;52.770;6.892;2022-07-12T01:50:08;4.07;;;2.05;;
52888;SDS011;41413;52.770;6.892;2022-07-12T01:52:37;3.05;;;2.30;;
52888;SDS011;41413;52.770;6.892;2022-07-12T01:55:05;2.00;;;1.80;;
52888;SDS011;41413;52.770;6.892;2022-07-12T01:57:33;2.05;;;1.92;;
52888;SDS011;41413;52.770;6.892;2022-07-12T02:00:01;1.77;;;1.67;;
52888;SDS011;41413;52.770;6.892;2022-07-12T02:02:31;1.60;;;1.50;;
52888;SDS011;41413;52.770;6.892;2022-07-12T02:05:01;3.42;;;1.90;;
52888;SDS011;41413;52.770;6.892;2022-07-12T02:07:29;2.00;;;1.90;;
52888;SDS011;41413;52.770;6.892;2022-07-12T02:09:56;2.20;;;2.00;;
52888;SDS011;41413;52.770;6.892;2022-07-12T02:12:24;1.83;;;1.73;;
52888;SDS011;41413;52.770;6.892;2022-07-12T02:14:51;2.58;;;1.50;;
52888;SDS011;41413;52.770;6.892;2022-07-12T02:17:18;2.25;;;2.15;;
52888;SDS011;41413;52.770;6.892;2022-07-12T02:19:45;2.83;;;1.67;;
52888;SDS011;41413;52.770;6.892;2022-07-12T02:22:11;1.48;;;1.40;;
52888;SDS011;41413;52.770;6.892;2022-07-12T02:24:38;1.98;;;1.40;;
52888;SDS011;41413;52.770;6.892;2022-07-12T02:27:05;2.08;;;1.40;;
52888;SDS011;41413;52.770;6.892;2022-07-12T02:29:32;1.50;;;1.40;;
52888;SDS011;41413;52.770;6.892;2022-07-12T02:31:59;1.95;;;1.80;;
52888;SDS011;41413;52.770;6.892;2022-07-12T02:34:26;1.60;;;1.50;;
52888;SDS011;41413;52.770;6.892;2022-07-12T02:36:53;2.10;;;1.85;;
52888;SDS011;41413;52.770;6.892;2022-07-12T02:39:20;1.55;;;1.45;;
52888;SDS011;41413;52.770;6.892;2022-07-12T02:41:47;2.08;;;1.98;;
52888;SDS011;41413;52.770;6.892;2022-07-12T02:44:13;5.18;;;1.90;;
52888;SDS011;41413;52.770;6.892;2022-07-12T02:46:40;3.70;;;1.77;;
52888;SDS011;41413;52.770;6.892;2022-07-12T02:49:07;4.53;;;1.85;;
52888;SDS011;41413;52.770;6.892;2022-07-12T02:51:33;2.03;;;1.92;;
52888;SDS011;41413;52.770;6.892;2022-07-12T02:54:00;1.67;;;1.58;;
52888;SDS011;41413;52.770;6.892;2022-07-12T02:56:27;2.03;;;1.88;;
52888;SDS011;41413;52.770;6.892;2022-07-12T02:58:54;2.47;;;2.08;;
52888;SDS011;41413;52.770;6.892;2022-07-12T03:01:21;1.88;;;1.77;;
52888;SDS011;41413;52.770;6.892;2022-07-12T03:03:47;1.83;;;1.73;;
52888;SDS011;41413;52.770;6.892;2022-07-12T03:06:14;1.67;;;1.58;;
52888;SDS011;41413;52.770;6.892;2022-07-12T03:08:42;1.40;;;1.30;;
52888;SDS011;41413;52.770;6.892;2022-07-12T03:11:08;2.00;;;1.83;;
52888;SDS011;41413;52.770;6.892;2022-07-12T03:13:35;2.45;;;1.75;;
52888;SDS011;41413;52.770;6.892;2022-07-12T03:16:02;2.03;;;1.88;;
52888;SDS011;41413;52.770;6.892;2022-07-12T03:18:29;1.80;;;1.65;;
52888;SDS011;41413;52.770;6.892;2022-07-12T03:20:57;2.20;;;1.42;;
52888;SDS011;41413;52.770;6.892;2022-07-12T03:23:24;1.63;;;1.20;;
52888;SDS011;41413;52.770;6.892;2022-07-12T03:25:50;2.55;;;1.65;;
52888;SDS011;41413;52.770;6.892;2022-07-12T03:28:17;2.08;;;1.70;;
52888;SDS011;41413;52.770;6.892;2022-07-12T03:30:44;2.22;;;1.52;;
52888;SDS011;41413;52.770;6.892;2022-07-12T03:33:11;1.67;;;1.58;;
52888;SDS011;41413;52.770;6.892;2022-07-12T03:35:37;2.38;;;1.73;;
52888;SDS011;41413;52.770;6.892;2022-07-12T03:38:04;1.40;;;1.30;;
52888;SDS011;41413;52.770;6.892;2022-07-12T03:40:31;3.13;;;1.67;;
52888;SDS011;41413;52.770;6.892;2022-07-12T03:43:00;4.05;;;1.90;;
52888;SDS011;41413;52.770;6.892;2022-07-12T03:45:27;2.00;;;1.88;;
52888;SDS011;41413;52.770;6.892;2022-07-12T03:47:53;1.55;;;1.35;;
52888;SDS011;41413;52.770;6.892;2022-07-12T03:50:20;2.05;;;1.92;;
52888;SDS011;41413;52.770;6.892;2022-07-12T03:52:47;1.55;;;1.45;;
52888;SDS011;41413;52.770;6.892;2022-07-12T03:55:14;2.05;;;1.85;;
52888;SDS011;41413;52.770;6.892;2022-07-12T03:57:41;3.42;;;2.08;;
52888;SDS011;41413;52.770;6.892;2022-07-12T04:00:09;3.13;;;2.50;;
52888;SDS011;41413;52.770;6.892;2022-07-12T04:02:38;1.88;;;1.75;;
52888;SDS011;41413;52.770;6.892;2022-07-12T04:05:06;2.42;;;2.22;;
52888;SDS011;41413;52.770;6.892;2022-07-12T04:07:34;2.50;;;2.30;;
52888;SDS011;41413;52.770;6.892;2022-07-12T04:10:02;3.33;;;2.90;;
52888;SDS011;41413;52.770;6.892;2022-07-12T04:12:30;5.00;;;3.42;;
52888;SDS011;41413;52.770;6.892;2022-07-12T04:14:57;3.35;;;3.10;;
52888;SDS011;41413;52.770;6.892;2022-07-12T04:17:23;4.05;;;3.15;;
52888;SDS011;41413;52.770;6.892;2022-07-12T04:19:50;4.78;;;4.07;;
52888;SDS011;41413;52.770;6.892;2022-07-12T04:22:19;4.78;;;4.38;;
52888;SDS011;41413;52.770;6.892;2022-07-12T04:24:46;4.20;;;3.83;;
52888;SDS011;41413;52.770;6.892;2022-07-12T04:27:13;4.57;;;4.20;;
52888;SDS011;41413;52.770;6.892;2022-07-12T04:29:40;4.70;;;4.18;;
52888;SDS011;41413;52.770;6.892;2022-07-12T04:32:06;4.50;;;4.15;;
52888;SDS011;41413;52.770;6.892;2022-07-12T04:34:33;6.53;;;3.80;;
52888;SDS011;41413;52.770;6.892;2022-07-12T04:37:00;4.93;;;4.53;;
52888;SDS011;41413;52.770;6.892;2022-07-12T04:39:27;11.43;;;4.95;;
52888;SDS011;41413;52.770;6.892;2022-07-12T04:41:54;5.28;;;4.78;;
52888;SDS011;41413;52.770;6.892;2022-07-12T04:44:20;6.20;;;5.57;;
52888;SDS011;41413;52.770;6.892;2022-07-12T04:46:47;6.00;;;5.47;;
52888;SDS011;41413;52.770;6.892;2022-07-12T04:49:14;10.63;;;5.65;;
52888;SDS011;41413;52.770;6.892;2022-07-12T04:51:40;12.32;;;4.85;;
52888;SDS011;41413;52.770;6.892;2022-07-12T04:54:07;7.43;;;5.90;;
52888;SDS011;41413;52.770;6.892;2022-07-12T04:56:34;10.32;;;6.15;;
52888;SDS011;41413;52.770;6.892;2022-07-12T04:59:01;6.57;;;5.32;;
52888;SDS011;41413;52.770;6.892;2022-07-12T05:01:28;13.25;;;6.25;;
52888;SDS011;41413;52.770;6.892;2022-07-12T05:03:55;8.32;;;5.75;;
52888;SDS011;41413;52.770;6.892;2022-07-12T05:06:22;6.80;;;6.20;;
52888;SDS011;41413;52.770;6.892;2022-07-12T05:08:49;7.38;;;6.68;;
52888;SDS011;41413;52.770;6.892;2022-07-12T05:11:16;6.78;;;5.72;;
52888;SDS011;41413;52.770;6.892;2022-07-12T05:13:43;6.97;;;6.38;;
52888;SDS011;41413;52.770;6.892;2022-07-12T05:16:10;7.68;;;5.80;;
52888;SDS011;41413;52.770;6.892;2022-07-12T05:18:37;7.70;;;6.90;;
52888;SDS011;41413;52.770;6.892;2022-07-12T05:21:04;13.52;;;11.25;;
52888;SDS011;41413;52.770;6.892;2022-07-12T05:23:31;31.60;;;25.63;;
52888;SDS011;41413;52.770;6.892;2022-07-12T05:25:57;27.13;;;22.20;;
52888;SDS011;41413;52.770;6.892;2022-07-12T05:28:24;23.20;;;18.52;;
52888;SDS011;41413;52.770;6.892;2022-07-12T05:30:51;17.90;;;16.00;;
52888;SDS011;41413;52.770;6.892;2022-07-12T05:33:18;15.77;;;14.25;;
52888;SDS011;41413;52.770;6.892;2022-07-12T05:35:45;17.58;;;14.98;;
52888;SDS011;41413;52.770;6.892;2022-07-12T05:38:11;17.08;;;13.65;;
52888;SDS011;41413;52.770;6.892;2022-07-12T05:40:38;12.98;;;11.75;;
52888;SDS011;41413;52.770;6.892;2022-07-12T05:43:05;11.32;;;10.13;;
52888;SDS011;41413;52.770;6.892;2022-07-12T05:45:31;10.68;;;9.38;;
52888;SDS011;41413;52.770;6.892;2022-07-12T05:47:58;17.13;;;10.45;;
52888;SDS011;41413;52.770;6.892;2022-07-12T05:50:25;12.38;;;9.43;;
52888;SDS011;41413;52.770;6.892;2022-07-12T05:52:51;12.27;;;10.95;;
52888;SDS011;41413;52.770;6.892;2022-07-12T05:55:37;11.18;;;10.05;;
52888;SDS011;41413;52.770;6.892;2022-07-12T05:58:03;12.80;;;9.95;;
52888;SDS011;41413;52.770;6.892;2022-07-12T06:00:30;12.55;;;9.32;;
52888;SDS011;41413;52.770;6.892;2022-07-12T06:02:58;10.52;;;9.57;;
52888;SDS011;41413;52.770;6.892;2022-07-12T06:05:25;10.48;;;9.48;;
52888;SDS011;41413;52.770;6.892;2022-07-12T06:07:52;10.15;;;9.23;;
52888;SDS011;41413;52.770;6.892;2022-07-12T06:10:19;9.05;;;8.10;;
52888;SDS011;41413;52.770;6.892;2022-07-12T06:12:46;9.20;;;8.50;;
52888;SDS011;41413;52.770;6.892;2022-07-12T06:15:13;9.13;;;8.27;;
52888;SDS011;41413;52.770;6.892;2022-07-12T06:17:40;9.38;;;8.57;;
52888;SDS011;41413;52.770;6.892;2022-07-12T06:20:07;9.02;;;8.30;;
52888;SDS011;41413;52.770;6.892;2022-07-12T06:22:35;14.70;;;8.23;;
52888;SDS011;41413;52.770;6.892;2022-07-12T06:25:01;10.50;;;8.35;;
52888;SDS011;41413;52.770;6.892;2022-07-12T06:27:49;8.98;;;8.25;;
52888;SDS011;41413;52.770;6.892;2022-07-12T06:30:20;8.27;;;7.55;;
52888;SDS011;41413;52.770;6.892;2022-07-12T06:32:48;7.00;;;6.40;;
52888;SDS011;41413;52.770;6.892;2022-07-12T06:35:15;7.82;;;7.07;;
52888;SDS011;41413;52.770;6.892;2022-07-12T06:37:42;8.20;;;7.50;;
52888;SDS011;41413;52.770;6.892;2022-07-12T06:40:09;8.32;;;7.53;;
52888;SDS011;41413;52.770;6.892;2022-07-12T06:42:37;7.60;;;7.00;;
52888;SDS011;41413;52.770;6.892;2022-07-12T06:45:04;7.68;;;6.45;;
52888;SDS011;41413;52.770;6.892;2022-07-12T06:47:31;7.82;;;7.00;;
52888;SDS011;41413;52.770;6.892;2022-07-12T06:49:58;10.07;;;9.27;;
52888;SDS011;41413;52.770;6.892;2022-07-12T06:52:25;9.60;;;8.70;;
52888;SDS011;41413;52.770;6.892;2022-07-12T06:54:56;9.43;;;8.57;;
52888;SDS011;41413;52.770;6.892;2022-07-12T06:57:23;10.25;;;8.38;;
52888;SDS011;41413;52.770;6.892;2022-07-12T06:59:53;8.60;;;7.38;;
52888;SDS011;41413;52.770;6.892;2022-07-12T07:02:20;7.72;;;7.00;;
52888;SDS011;41413;52.770;6.892;2022-07-12T07:04:47;7.50;;;6.82;;
52888;SDS011;41413;52.770;6.892;2022-07-12T07:07:14;6.50;;;6.00;;
52888;SDS011;41413;52.770;6.892;2022-07-12T07:09:41;7.63;;;6.95;;
52888;SDS011;41413;52.770;6.892;2022-07-12T07:12:08;9.70;;;7.43;;
52888;SDS011;41413;52.770;6.892;2022-07-12T07:14:34;6.40;;;5.90;;
52888;SDS011;41413;52.770;6.892;2022-07-12T07:17:01;7.28;;;6.50;;
52888;SDS011;41413;52.770;6.892;2022-07-12T07:19:28;5.75;;;4.78;;
52888;SDS011;41413;52.770;6.892;2022-07-12T07:21:55;5.25;;;4.82;;
52888;SDS011;41413;52.770;6.892;2022-07-12T07:24:22;6.65;;;6.05;;
52888;SDS011;41413;52.770;6.892;2022-07-12T07:26:49;8.40;;;5.72;;
52888;SDS011;41413;52.770;6.892;2022-07-12T07:29:23;6.18;;;5.53;;
52888;SDS011;41413;52.770;6.892;2022-07-12T07:32:08;6.18;;;5.57;;
52888;SDS011;41413;52.770;6.892;2022-07-12T07:34:35;6.85;;;6.28;;
52888;SDS011;41413;52.770;6.892;2022-07-12T07:37:02;6.18;;;5.55;;
52888;SDS011;41413;52.770;6.892;2022-07-12T07:39:29;6.40;;;6.00;;
52888;SDS011;41413;52.770;6.892;2022-07-12T07:41:56;6.50;;;6.07;;
52888;SDS011;41413;52.770;6.892;2022-07-12T07:44:22;13.15;;;7.05;;
52888;SDS011;41413;52.770;6.892;2022-07-12T07:49:25;6.75;;;6.22;;
52888;SDS011;41413;52.770;6.892;2022-07-12T07:51:52;7.18;;;6.10;;
52888;SDS011;41413;52.770;6.892;2022-07-12T07:54:18;6.13;;;5.55;;
52888;SDS011;41413;52.770;6.892;2022-07-12T07:56:45;5.63;;;5.15;;
52888;SDS011;41413;52.770;6.892;2022-07-12T07:59:12;6.97;;;6.28;;
52888;SDS011;41413;52.770;6.892;2022-07-12T08:01:38;6.30;;;5.70;;
52888;SDS011;41413;52.770;6.892;2022-07-12T08:04:12;8.40;;;7.75;;
52888;SDS011;41413;52.770;6.892;2022-07-12T08:06:40;7.32;;;6.40;;
52888;SDS011;41413;52.770;6.892;2022-07-12T08:09:08;6.53;;;5.90;;
52888;SDS011;41413;52.770;6.892;2022-07-12T08:11:38;5.82;;;5.35;;
52888;SDS011;41413;52.770;6.892;2022-07-12T08:14:06;5.32;;;4.90;;
52888;SDS011;41413;52.770;6.892;2022-07-12T08:16:33;5.70;;;5.25;;
52888;SDS011;41413;52.770;6.892;2022-07-12T08:19:01;5.68;;;4.80;;
52888;SDS011;41413;52.770;6.892;2022-07-12T08:21:28;5.72;;;5.22;;
52888;SDS011;41413;52.770;6.892;2022-07-12T08:23:55;5.68;;;5.13;;
52888;SDS011;41413;52.770;6.892;2022-07-12T08:26:22;10.50;;;6.03;;
52888;SDS011;41413;52.770;6.892;2022-07-12T08:28:49;11.57;;;5.80;;
52888;SDS011;41413;52.770;6.892;2022-07-12T08:31:17;5.25;;;4.75;;
52888;SDS011;41413;52.770;6.892;2022-07-12T08:33:44;5.13;;;4.63;;
52888;SDS011;41413;52.770;6.892;2022-07-12T08:36:11;5.18;;;4.78;;
52888;SDS011;41413;52.770;6.892;2022-07-12T08:38:38;5.40;;;4.90;;
52888;SDS011;41413;52.770;6.892;2022-07-12T08:41:07;5.47;;;5.10;;
52888;SDS011;41413;52.770;6.892;2022-07-12T08:43:35;4.88;;;4.47;;
52888;SDS011;41413;52.770;6.892;2022-07-12T08:46:06;5.35;;;4.95;;
52888;SDS011;41413;52.770;6.892;2022-07-12T08:48:38;4.93;;;4.63;;
52888;SDS011;41413;52.770;6.892;2022-07-12T08:51:09;4.15;;;3.85;;
52888;SDS011;41413;52.770;6.892;2022-07-12T08:53:38;4.45;;;4.05;;
52888;SDS011;41413;52.770;6.892;2022-07-12T08:56:06;4.45;;;4.20;;
52888;SDS011;41413;52.770;6.892;2022-07-12T08:58:33;4.82;;;4.53;;
52888;SDS011;41413;52.770;6.892;2022-07-12T09:01:00;5.00;;;4.63;;
52888;SDS011;41413;52.770;6.892;2022-07-12T09:03:27;3.55;;;3.35;;
52888;SDS011;41413;52.770;6.892;2022-07-12T09:05:55;3.88;;;3.65;;
52888;SDS011;41413;52.770;6.892;2022-07-12T09:08:29;4.05;;;3.85;;
52888;SDS011;41413;52.770;6.892;2022-07-12T09:11:00;4.10;;;3.80;;
52888;SDS011;41413;52.770;6.892;2022-07-12T09:16:24;4.88;;;4.47;;
52888;SDS011;41413;52.770;6.892;2022-07-12T09:19:10;4.32;;;4.05;;
52888;SDS011;41413;52.770;6.892;2022-07-12T09:21:50;4.63;;;4.22;;
52888;SDS011;41413;52.770;6.892;2022-07-12T09:24:23;5.38;;;4.93;;
52888;SDS011;41413;52.770;6.892;2022-07-12T09:26:56;4.90;;;4.47;;
52888;SDS011;41413;52.770;6.892;2022-07-12T09:29:26;3.83;;;3.53;;
52888;SDS011;41413;52.770;6.892;2022-07-12T09:31:52;4.82;;;4.38;;
52888;SDS011;41413;52.770;6.892;2022-07-12T09:34:38;4.13;;;3.83;;
52888;SDS011;41413;52.770;6.892;2022-07-12T09:37:24;4.30;;;4.00;;
52888;SDS011;41413;52.770;6.892;2022-07-12T09:39:55;4.18;;;3.78;;
52888;SDS011;41413;52.770;6.892;2022-07-12T09:42:22;4.30;;;4.00;;
52888;SDS011;41413;52.770;6.892;2022-07-12T09:44:54;3.70;;;3.40;;
52888;SDS011;41413;52.770;6.892;2022-07-12T09:47:22;3.58;;;3.38;;
52888;SDS011;41413;52.770;6.892;2022-07-12T09:49:51;3.67;;;3.40;;
52888;SDS011;41413;52.770;6.892;2022-07-12T09:52:22;3.92;;;3.72;;
52888;SDS011;41413;52.770;6.892;2022-07-12T09:54:51;8.25;;;3.83;;
52888;SDS011;41413;52.770;6.892;2022-07-12T09:57:20;3.50;;;3.17;;
52888;SDS011;41413;52.770;6.892;2022-07-12T09:59:47;3.40;;;3.10;;
52888;SDS011;41413;52.770;6.892;2022-07-12T10:02:16;3.72;;;3.47;;
52888;SDS011;41413;52.770;6.892;2022-07-12T10:04:45;3.38;;;3.05;;
52888;SDS011;41413;52.770;6.892;2022-07-12T10:07:12;3.63;;;3.42;;
52888;SDS011;41413;52.770;6.892;2022-07-12T10:09:51;3.13;;;2.92;;
52888;SDS011;41413;52.770;6.892;2022-07-12T10:12:20;2.33;;;2.22;;
52888;SDS011;41413;52.770;6.892;2022-07-12T10:14:53;3.05;;;2.60;;
52888;SDS011;41413;52.770;6.892;2022-07-12T10:17:25;2.38;;;2.28;;
52888;SDS011;41413;52.770;6.892;2022-07-12T10:22:43;2.33;;;2.13;;
52888;SDS011;41413;52.770;6.892;2022-07-12T10:27:52;3.28;;;3.08;;
52888;SDS011;41413;52.770;6.892;2022-07-12T10:30:21;6.78;;;2.97;;
52888;SDS011;41413;52.770;6.892;2022-07-12T10:32:49;2.28;;;2.17;;
52888;SDS011;41413;52.770;6.892;2022-07-12T10:35:20;4.85;;;2.95;;
52888;SDS011;41413;52.770;6.892;2022-07-12T10:40:37;2.25;;;2.05;;
52888;SDS011;41413;52.770;6.892;2022-07-12T10:45:40;2.20;;;2.10;;
52888;SDS011;41413;52.770;6.892;2022-07-12T10:58:31;1.73;;;1.65;;
52888;SDS011;41413;52.770;6.892;2022-07-12T11:01:07;1.95;;;1.85;;
52888;SDS011;41413;52.770;6.892;2022-07-12T11:06:07;2.33;;;2.22;;
52888;SDS011;41413;52.770;6.892;2022-07-12T11:11:29;1.77;;;1.67;;
52888;SDS011;41413;52.770;6.892;2022-07-12T11:14:01;1.95;;;1.85;;
52888;SDS011;41413;52.770;6.892;2022-07-12T11:16:29;2.33;;;2.22;;
52888;SDS011;41413;52.770;6.892;2022-07-12T11:18:57;2.40;;;2.30;;
52888;SDS011;41413;52.770;6.892;2022-07-12T11:21:24;2.75;;;2.55;;
52888;SDS011;41413;52.770;6.892;2022-07-12T11:23:51;4.00;;;2.42;;
52888;SDS011;41413;52.770;6.892;2022-07-12T11:26:18;2.15;;;2.05;;
52888;SDS011;41413;52.770;6.892;2022-07-12T11:28:45;2.45;;;1.48;;
52888;SDS011;41413;52.770;6.892;2022-07-12T11:31:15;1.48;;;1.40;;
52888;SDS011;41413;52.770;6.892;2022-07-12T11:33:46;1.50;;;1.50;;
52888;SDS011;41413;52.770;6.892;2022-07-12T11:36:14;2.10;;;1.90;;
52888;SDS011;41413;52.770;6.892;2022-07-12T11:38:42;2.03;;;1.92;;
52888;SDS011;41413;52.770;6.892;2022-07-12T11:41:11;2.20;;;2.10;;
52888;SDS011;41413;52.770;6.892;2022-07-12T11:43:40;2.08;;;1.98;;
52888;SDS011;41413;52.770;6.892;2022-07-12T11:46:08;1.95;;;1.92;;
52888;SDS011;41413;52.770;6.892;2022-07-12T11:48:36;2.22;;;2.13;;
52888;SDS011;41413;52.770;6.892;2022-07-12T11:51:04;1.92;;;1.83;;
52888;SDS011;41413;52.770;6.892;2022-07-12T11:53:33;2.28;;;2.17;;
52888;SDS011;41413;52.770;6.892;2022-07-12T11:56:01;1.98;;;1.88;;
52888;SDS011;41413;52.770;6.892;2022-07-12T11:58:30;2.38;;;2.28;;
52888;SDS011;41413;52.770;6.892;2022-07-12T12:01:04;2.85;;;1.83;;
52888;SDS011;41413;52.770;6.892;2022-07-12T12:03:42;1.70;;;1.60;;
52888;SDS011;41413;52.770;6.892;2022-07-12T12:06:11;5.53;;;2.40;;
52888;SDS011;41413;52.770;6.892;2022-07-12T12:08:39;2.88;;;2.40;;
52888;SDS011;41413;52.770;6.892;2022-07-12T12:11:05;2.53;;;2.42;;
52888;SDS011;41413;52.770;6.892;2022-07-12T12:13:32;2.85;;;2.65;;
52888;SDS011;41413;52.770;6.892;2022-07-12T12:16:00;3.53;;;2.78;;
52888;SDS011;41413;52.770;6.892;2022-07-12T12:21:02;6.03;;;2.35;;
52888;SDS011;41413;52.770;6.892;2022-07-12T12:23:30;2.67;;;2.38;;
52888;SDS011;41413;52.770;6.892;2022-07-12T12:28:49;2.45;;;2.35;;
52888;SDS011;41413;52.770;6.892;2022-07-12T12:31:20;1.67;;;1.58;;
52888;SDS011;41413;52.770;6.892;2022-07-12T12:33:49;2.00;;;1.90;;
52888;SDS011;41413;52.770;6.892;2022-07-12T12:39:00;4.28;;;2.67;;
52888;SDS011;41413;52.770;6.892;2022-07-12T12:41:28;2.95;;;2.75;;
52888;SDS011;41413;52.770;6.892;2022-07-12T12:44:05;2.63;;;2.47;;
52888;SDS011;41413;52.770;6.892;2022-07-12T12:52:23;5.40;;;2.25;;
52888;SDS011;41413;52.770;6.892;2022-07-12T12:54:51;2.28;;;2.17;;
52888;SDS011;41413;52.770;6.892;2022-07-12T12:57:18;2.38;;;2.28;;
52888;SDS011;41413;52.770;6.892;2022-07-12T12:59:45;2.13;;;2.03;;
52888;SDS011;41413;52.770;6.892;2022-07-12T13:02:12;3.08;;;1.80;;
52888;SDS011;41413;52.770;6.892;2022-07-12T13:04:39;2.63;;;1.60;;
52888;SDS011;41413;52.770;6.892;2022-07-12T13:07:06;2.75;;;1.95;;
52888;SDS011;41413;52.770;6.892;2022-07-12T13:09:38;2.80;;;2.35;;
52888;SDS011;41413;52.770;6.892;2022-07-12T13:12:05;2.40;;;2.30;;
52888;SDS011;41413;52.770;6.892;2022-07-12T13:14:33;2.17;;;2.08;;
52888;SDS011;41413;52.770;6.892;2022-07-12T13:17:00;1.70;;;1.70;;
52888;SDS011;41413;52.770;6.892;2022-07-12T13:19:27;2.28;;;1.67;;
52888;SDS011;41413;52.770;6.892;2022-07-12T13:21:54;2.15;;;2.00;;
52888;SDS011;41413;52.770;6.892;2022-07-12T13:24:20;2.47;;;2.28;;
52888;SDS011;41413;52.770;6.892;2022-07-12T13:26:47;2.17;;;2.08;;
52888;SDS011;41413;52.770;6.892;2022-07-12T13:29:14;1.98;;;1.88;;
52888;SDS011;41413;52.770;6.892;2022-07-12T13:31:41;2.47;;;2.28;;
52888;SDS011;41413;52.770;6.892;2022-07-12T13:34:08;2.00;;;1.90;;
52888;SDS011;41413;52.770;6.892;2022-07-12T13:36:34;2.33;;;1.70;;
52888;SDS011;41413;52.770;6.892;2022-07-12T13:39:01;9.20;;;1.95;;
52888;SDS011;41413;52.770;6.892;2022-07-12T13:41:48;1.80;;;1.70;;
52888;SDS011;41413;52.770;6.892;2022-07-12T13:44:15;1.63;;;1.55;;
52888;SDS011;41413;52.770;6.892;2022-07-12T13:46:48;2.55;;;2.00;;
52888;SDS011;41413;52.770;6.892;2022-07-12T13:49:15;1.88;;;1.63;;
52888;SDS011;41413;52.770;6.892;2022-07-12T13:51:42;8.07;;;1.73;;
52888;SDS011;41413;52.770;6.892;2022-07-12T13:54:08;1.70;;;1.67;;
52888;SDS011;41413;52.770;6.892;2022-07-12T13:56:35;1.52;;;1.52;;
52888;SDS011;41413;52.770;6.892;2022-07-12T13:59:02;2.15;;;2.05;;
52888;SDS011;41413;52.770;6.892;2022-07-12T14:01:30;1.92;;;1.83;;
52888;SDS011;41413;52.770;6.892;2022-07-12T14:03:57;3.55;;;2.58;;
52888;SDS011;41413;52.770;6.892;2022-07-12T14:06:24;2.33;;;2.05;;
52888;SDS011;41413;52.770;6.892;2022-07-12T14:08:51;2.17;;;2.08;;
52888;SDS011;41413;52.770;6.892;2022-07-12T14:11:19;2.20;;;2.10;;
52888;SDS011;41413;52.770;6.892;2022-07-12T14:13:46;3.75;;;1.80;;
52888;SDS011;41413;52.770;6.892;2022-07-12T14:16:13;1.80;;;1.70;;
52888;SDS011;41413;52.770;6.892;2022-07-12T14:18:40;1.63;;;1.52;;
52888;SDS011;41413;52.770;6.892;2022-07-12T14:21:07;1.80;;;1.70;;
52888;SDS011;41413;52.770;6.892;2022-07-12T14:23:35;2.15;;;1.90;;
52888;SDS011;41413;52.770;6.892;2022-07-12T14:26:02;2.03;;;1.92;;
52888;SDS011;41413;52.770;6.892;2022-07-12T14:28:29;1.58;;;1.48;;
52888;SDS011;41413;52.770;6.892;2022-07-12T14:30:55;1.60;;;1.60;;
52888;SDS011;41413;52.770;6.892;2022-07-12T14:33:22;1.58;;;1.48;;
52888;SDS011;41413;52.770;6.892;2022-07-12T14:35:49;2.33;;;1.58;;
52888;SDS011;41413;52.770;6.892;2022-07-12T14:38:16;1.70;;;1.60;;
52888;SDS011;41413;52.770;6.892;2022-07-12T14:40:43;4.13;;;2.28;;
52888;SDS011;41413;52.770;6.892;2022-07-12T14:43:09;1.83;;;1.77;;
52888;SDS011;41413;52.770;6.892;2022-07-12T14:45:36;3.58;;;1.75;;
52888;SDS011;41413;52.770;6.892;2022-07-12T14:48:03;1.85;;;1.75;;
52888;SDS011;41413;52.770;6.892;2022-07-12T14:50:30;1.85;;;1.70;;
52888;SDS011;41413;52.770;6.892;2022-07-12T14:52:57;5.68;;;1.63;;
52888;SDS011;41413;52.770;6.892;2022-07-12T14:55:24;2.88;;;2.03;;
52888;SDS011;41413;52.770;6.892;2022-07-12T14:57:51;1.65;;;1.38;;
52888;SDS011;41413;52.770;6.892;2022-07-12T15:00:17;4.07;;;1.75;;
52888;SDS011;41413;52.770;6.892;2022-07-12T15:02:46;1.67;;;1.58;;
52888;SDS011;41413;52.770;6.892;2022-07-12T15:05:17;5.05;;;2.03;;
52888;SDS011;41413;52.770;6.892;2022-07-12T15:07:44;6.30;;;1.95;;
52888;SDS011;41413;52.770;6.892;2022-07-12T15:10:11;7.30;;;1.58;;
52888;SDS011;41413;52.770;6.892;2022-07-12T15:12:38;2.00;;;1.90;;
52888;SDS011;41413;52.770;6.892;2022-07-12T15:15:05;2.25;;;2.15;;
52888;SDS011;41413;52.770;6.892;2022-07-12T15:17:32;3.08;;;2.80;;
52888;SDS011;41413;52.770;6.892;2022-07-12T15:19:58;2.40;;;2.00;;
52888;SDS011;41413;52.770;6.892;2022-07-12T15:22:25;2.85;;;2.58;;
52888;SDS011;41413;52.770;6.892;2022-07-12T15:24:52;1.60;;;1.50;;
52888;SDS011;41413;52.770;6.892;2022-07-12T15:27:18;2.45;;;2.17;;
52888;SDS011;41413;52.770;6.892;2022-07-12T15:29:45;2.10;;;2.00;;
52888;SDS011;41413;52.770;6.892;2022-07-12T15:32:13;1.90;;;1.80;;
52888;SDS011;41413;52.770;6.892;2022-07-12T15:34:40;2.20;;;2.10;;
52888;SDS011;41413;52.770;6.892;2022-07-12T15:37:07;2.00;;;1.90;;